Time;durP1;ratioP1;P1;durP2;ratioP2;P2;SDS_P1;SDS_P2;PMS_P1;PMS_P2;Temp;Humidity;BMP_temperature;BMP_pressure;BME280_temperature;BME280_humidity;BME280_pressure;Samples;Min_cycle;Max_cycle;Signal;HPM_P1;HPM_P2
2022/12/26 00:00:15;;;;;;;33.00;10.53;;;6.70;99.90;;;;;;5039144;28;20177;-61
2022/12/26 00:02:40;;;;;;;17.03;11.73;;;6.70;99.90;;;;;;5044338;28;20209;-59
2022/12/26 00:05:06;;;;;;;23.17;11.43;;;6.70;99.90;;;;;;5040929;28;20430;-59
2022/12/26 00:07:32;;;;;;;16.27;10.40;;;6.60;99.90;;;;;;5045108;28;20174;-59
2022/12/26 00:09:58;;;;;;;16.40;10.27;;;6.60;99.90;;;;;;5041704;28;20410;-59
2022/12/26 00:12:24;;;;;;;17.43;9.80;;;6.60;99.90;;;;;;5052566;28;20464;-59
2022/12/26 00:14:50;;;;;;;14.70;9.40;;;6.60;99.90;;;;;;5035331;28;20251;-60
2022/12/26 00:17:15;;;;;;;20.90;10.23;;;6.60;99.90;;;;;;5041574;28;20267;-59
2022/12/26 00:19:41;;;;;;;20.40;10.60;;;6.60;99.90;;;;;;5053038;28;21097;-60
2022/12/26 00:22:07;;;;;;;18.03;10.47;;;6.50;99.90;;;;;;5046826;28;20419;-59
2022/12/26 00:24:33;;;;;;;15.30;10.00;;;6.50;99.90;;;;;;5049810;28;20413;-59
2022/12/26 00:26:58;;;;;;;19.13;11.40;;;6.50;99.90;;;;;;5050606;28;21128;-59
2022/12/26 00:29:24;;;;;;;20.13;11.37;;;6.50;99.90;;;;;;5046162;28;20693;-59
2022/12/26 00:31:49;;;;;;;16.13;10.10;;;6.50;99.90;;;;;;5036843;28;20225;-59
2022/12/26 00:34:15;;;;;;;17.73;10.53;;;6.50;99.90;;;;;;5033536;28;20172;-59
2022/12/26 00:36:41;;;;;;;17.67;11.37;;;6.50;99.90;;;;;;5062112;28;20167;-59
2022/12/26 00:39:06;;;;;;;19.07;11.37;;;6.50;99.90;;;;;;5047887;28;20298;-59
2022/12/26 00:41:33;;;;;;;18.07;10.87;;;6.50;99.90;;;;;;5048200;28;20296;-59
2022/12/26 00:43:58;;;;;;;17.90;11.27;;;6.50;99.90;;;;;;5044909;28;20819;-59
2022/12/26 00:46:25;;;;;;;18.70;11.93;;;6.50;99.90;;;;;;5045219;28;20438;-59
2022/12/26 00:48:51;;;;;;;24.03;13.00;;;6.60;99.90;;;;;;5051690;28;20175;-59
2022/12/26 00:51:17;;;;;;;25.33;13.03;;;6.50;99.90;;;;;;5044254;28;20480;-59
2022/12/26 00:53:43;;;;;;;23.37;13.70;;;6.50;99.90;;;;;;5041626;28;20512;-59
2022/12/26 00:56:08;;;;;;;23.37;13.00;;;6.50;99.90;;;;;;5038942;28;20176;-59
2022/12/26 00:58:34;;;;;;;26.53;14.23;;;6.50;99.90;;;;;;5036450;28;20187;-59
2022/12/26 01:01:18;;;;;;;23.30;12.53;;;6.50;99.90;;;;;;5041533;28;20170;-59
2022/12/26 01:03:47;;;;;;;17.67;11.33;;;6.50;99.90;;;;;;5051701;28;20228;-59
2022/12/26 01:06:13;;;;;;;17.30;11.33;;;6.50;99.90;;;;;;5046516;28;20425;-59
2022/12/26 01:08:39;;;;;;;17.10;10.50;;;6.50;99.90;;;;;;5048706;28;20905;-58
2022/12/26 01:11:07;;;;;;;19.17;11.47;;;6.40;99.90;;;;;;5037571;28;20455;-59
2022/12/26 01:13:33;;;;;;;24.20;11.03;;;6.40;99.90;;;;;;5046924;28;20446;-59
2022/12/26 01:15:59;;;;;;;16.40;9.83;;;6.40;99.90;;;;;;5044274;28;20437;-60
2022/12/26 01:18:25;;;;;;;18.67;10.33;;;6.40;99.90;;;;;;5046890;28;20415;-58
2022/12/26 01:20:56;;;;;;;15.77;9.97;;;6.40;99.90;;;;;;5046797;28;20425;-59
2022/12/26 01:23:21;;;;;;;16.40;10.77;;;6.30;99.90;;;;;;5051417;28;20170;-59
2022/12/26 01:25:47;;;;;;;18.63;11.00;;;6.30;99.90;;;;;;5045384;28;20468;-59
2022/12/26 01:28:13;;;;;;;17.17;9.97;;;6.30;99.90;;;;;;5049583;28;20170;-59
2022/12/26 01:30:38;;;;;;;16.70;9.83;;;6.30;99.90;;;;;;5046843;28;20198;-59
2022/12/26 01:33:04;;;;;;;18.10;10.40;;;6.30;99.90;;;;;;5050975;28;20209;-59
2022/12/26 01:35:30;;;;;;;18.93;10.93;;;6.30;99.90;;;;;;5048966;28;20653;-60
2022/12/26 01:37:57;;;;;;;15.73;9.60;;;6.30;99.90;;;;;;5042409;28;20442;-58
2022/12/26 01:40:23;;;;;;;14.63;9.97;;;6.30;99.90;;;;;;5045000;28;20195;-59
2022/12/26 01:42:48;;;;;;;15.53;10.80;;;6.30;99.90;;;;;;5045267;28;20459;-60
2022/12/26 01:45:20;;;;;;;15.70;9.67;;;6.30;99.90;;;;;;5038768;28;20597;-59
2022/12/26 01:47:58;;;;;;;13.53;8.90;;;6.30;99.90;;;;;;5040250;28;20225;-58
2022/12/26 01:50:30;;;;;;;16.13;10.40;;;6.30;99.90;;;;;;5043233;28;20468;-59
2022/12/26 01:53:01;;;;;;;16.60;9.47;;;6.30;99.90;;;;;;5043914;28;20533;-60
2022/12/26 01:55:28;;;;;;;15.27;8.97;;;6.30;99.90;;;;;;5046149;28;20945;-59
2022/12/26 01:57:58;;;;;;;15.67;9.63;;;6.30;99.90;;;;;;5050864;28;21087;-59
2022/12/26 02:00:23;;;;;;;15.37;9.87;;;6.30;99.90;;;;;;5047459;28;20426;-59
2022/12/26 02:05:34;;;;;;;17.97;10.40;;;6.30;99.90;;;;;;5045218;28;20177;-59
2022/12/26 02:08:19;;;;;;;16.90;10.53;;;6.30;99.90;;;;;;5048189;28;20957;-59
2022/12/26 02:10:57;;;;;;;14.30;9.30;;;6.30;99.90;;;;;;5046519;28;20452;-59
2022/12/26 02:13:23;;;;;;;13.73;8.83;;;6.30;99.90;;;;;;5046452;28;20786;-59
2022/12/26 02:15:49;;;;;;;15.23;9.80;;;6.30;99.90;;;;;;5042550;28;20805;-59
2022/12/26 02:18:14;;;;;;;15.30;9.53;;;6.30;99.90;;;;;;5050284;28;20423;-59
2022/12/26 02:21:04;;;;;;;18.30;9.70;;;6.30;99.90;;;;;;5047182;28;20186;-59
2022/12/26 02:24:04;;;;;;;14.20;9.03;;;6.30;99.90;;;;;;5042301;28;20226;-59
2022/12/26 02:26:38;;;;;;;15.53;9.33;;;6.30;99.90;;;;;;5043203;28;20438;-59
2022/12/26 02:29:31;;;;;;;15.93;10.30;;;6.30;99.90;;;;;;5046159;28;21012;-59
2022/12/26 02:32:21;;;;;;;13.33;9.33;;;6.30;99.90;;;;;;5043122;28;20464;-60
2022/12/26 02:34:52;;;;;;;19.40;11.10;;;6.30;99.90;;;;;;5041458;28;20498;-59
2022/12/26 02:37:27;;;;;;;18.73;10.60;;;6.30;99.90;;;;;;5043450;28;20426;-59
2022/12/26 02:40:08;;;;;;;20.20;11.40;;;6.30;99.90;;;;;;5045187;28;20438;-59
2022/12/26 02:42:58;;;;;;;20.73;11.53;;;6.30;99.90;;;;;;5047480;28;20452;-59
2022/12/26 02:48:38;;;;;;;16.00;9.83;;;6.30;99.90;;;;;;5046820;28;20821;-59
2022/12/26 03:14:25;;;;;;;18.37;10.07;;;6.30;99.90;;;;;;5043191;28;21319;-59
2022/12/26 03:20:00;;;;;;;16.23;9.90;;;6.30;99.90;;;;;;5044343;28;20468;-59
2022/12/26 03:22:35;;;;;;;16.30;9.57;;;6.30;99.90;;;;;;5041874;28;20446;-59
2022/12/26 03:27:49;;;;;;;16.40;10.07;;;6.30;99.90;;;;;;5044556;28;20826;-59
2022/12/26 03:32:59;;;;;;;17.70;9.83;;;6.30;99.90;;;;;;5044433;28;20283;-59
2022/12/26 03:35:29;;;;;;;23.27;11.20;;;6.30;99.90;;;;;;5043104;28;20520;-59
2022/12/26 03:38:10;;;;;;;15.43;9.57;;;6.30;99.90;;;;;;5044042;28;20284;-59
2022/12/26 04:19:30;;;;;;;19.00;11.07;;;6.30;99.90;;;;;;5041089;28;20432;-59
2022/12/26 04:45:06;;;;;;;15.30;9.67;;;6.40;99.90;;;;;;5047583;28;20460;-59
2022/12/26 04:47:32;;;;;;;15.87;9.80;;;6.40;99.90;;;;;;5047891;28;20487;-59
2022/12/26 04:50:10;;;;;;;19.27;10.77;;;6.40;99.90;;;;;;5044356;28;20419;-59
2022/12/26 04:52:57;;;;;;;16.60;9.90;;;6.40;99.90;;;;;;5039783;28;20461;-59
2022/12/26 04:55:25;;;;;;;14.67;9.30;;;6.40;99.90;;;;;;5045924;28;20957;-59
2022/12/26 04:57:50;;;;;;;17.00;9.87;;;6.40;99.90;;;;;;5033172;28;20418;-59
2022/12/26 05:00:16;;;;;;;14.63;9.27;;;6.40;99.90;;;;;;5044070;28;20429;-59
2022/12/26 05:11:21;;;;;;;17.20;9.03;;;6.40;99.90;;;;;;5036163;28;20554;-59
2022/12/26 05:13:47;;;;;;;15.97;8.57;;;6.40;99.90;;;;;;5045281;28;20516;-59
2022/12/26 05:30:00;;;;;;;16.13;9.60;;;6.50;99.90;;;;;;5043934;28;20487;-59
2022/12/26 05:35:10;;;;;;;16.57;9.60;;;6.50;99.90;;;;;;5037519;28;20532;-59
2022/12/26 05:37:36;;;;;;;15.57;9.80;;;6.50;99.90;;;;;;5051822;28;20420;-59
2022/12/26 05:40:01;;;;;;;19.03;11.20;;;6.50;99.90;;;;;;5061081;28;20194;-59
2022/12/26 05:42:27;;;;;;;17.43;10.20;;;6.50;99.90;;;;;;5039787;28;20234;-59
2022/12/26 05:44:53;;;;;;;19.20;11.07;;;6.50;99.90;;;;;;5046731;28;20255;-59
2022/12/26 05:47:18;;;;;;;17.70;10.50;;;6.60;99.90;;;;;;5049175;28;20631;-59
2022/12/26 05:49:44;;;;;;;17.10;10.63;;;6.60;99.90;;;;;;5047695;28;20245;-59
2022/12/26 05:52:09;;;;;;;18.10;10.77;;;6.60;99.90;;;;;;5043663;28;20207;-59
2022/12/26 05:54:35;;;;;;;17.87;11.00;;;6.50;99.90;;;;;;5050169;28;20240;-60
2022/12/26 05:57:02;;;;;;;18.40;11.90;;;6.60;99.90;;;;;;5049105;28;20254;-59
2022/12/26 05:59:28;;;;;;;19.10;10.40;;;6.60;99.90;;;;;;5043458;28;20179;-60
2022/12/26 06:01:54;;;;;;;17.60;10.33;;;6.60;99.90;;;;;;5036929;28;21010;-59
2022/12/26 06:04:19;;;;;;;18.80;11.47;;;6.60;99.90;;;;;;5053094;28;20426;-59
2022/12/26 06:06:45;;;;;;;21.37;11.47;;;6.60;99.90;;;;;;5045772;28;20178;-59
2022/12/26 06:09:11;;;;;;;18.67;11.23;;;6.60;99.90;;;;;;5047656;28;20694;-59
2022/12/26 06:11:36;;;;;;;18.53;11.10;;;6.60;99.90;;;;;;5047476;28;20201;-59
2022/12/26 06:14:03;;;;;;;20.63;12.43;;;6.60;99.90;;;;;;5047037;28;20663;-59
2022/12/26 06:16:29;;;;;;;19.00;10.70;;;6.60;99.90;;;;;;5038796;28;20626;-59
2022/12/26 06:18:55;;;;;;;18.73;10.60;;;6.60;99.90;;;;;;5040824;28;20429;-59
2022/12/26 06:21:21;;;;;;;17.87;10.57;;;6.60;99.90;;;;;;5042795;28;20211;-59
2022/12/26 06:23:47;;;;;;;16.97;10.40;;;6.60;99.90;;;;;;5037286;28;20186;-59
2022/12/26 06:26:14;;;;;;;20.60;10.70;;;6.60;99.90;;;;;;5046795;28;20433;-59
2022/12/26 06:28:41;;;;;;;16.80;10.43;;;6.60;99.90;;;;;;5041102;28;20401;-59
2022/12/26 06:31:10;;;;;;;20.20;11.47;;;6.60;99.90;;;;;;5051805;28;20472;-59
2022/12/26 06:33:36;;;;;;;19.13;11.57;;;6.60;99.90;;;;;;5038602;28;20565;-59
2022/12/26 06:36:08;;;;;;;20.27;11.63;;;6.60;99.90;;;;;;5039596;28;20943;-59
2022/12/26 06:38:34;;;;;;;18.87;10.67;;;6.60;99.90;;;;;;5043174;28;20424;-59
2022/12/26 06:40:59;;;;;;;16.97;11.00;;;6.60;99.90;;;;;;5047220;28;21142;-57
2022/12/26 06:43:25;;;;;;;20.17;10.03;;;6.60;99.90;;;;;;5039781;28;20706;-59
2022/12/26 06:46:02;;;;;;;17.70;10.10;;;6.60;99.90;;;;;;5048718;28;20179;-59
2022/12/26 06:48:28;;;;;;;19.10;10.10;;;6.60;99.90;;;;;;5051029;28;20174;-59
2022/12/26 06:50:54;;;;;;;18.77;11.33;;;6.60;99.90;;;;;;5043397;28;20456;-58
2022/12/26 06:53:21;;;;;;;21.63;11.30;;;6.60;99.90;;;;;;5046382;28;20452;-60
2022/12/26 06:55:47;;;;;;;15.60;10.53;;;6.60;99.90;;;;;;5038628;28;20180;-59
2022/12/26 06:58:13;;;;;;;14.60;9.70;;;6.70;99.90;;;;;;5045068;28;20825;-59
2022/12/26 07:00:38;;;;;;;18.67;10.80;;;6.70;99.90;;;;;;5041126;28;20443;-59
2022/12/26 07:03:04;;;;;;;18.00;10.43;;;6.70;99.90;;;;;;5052173;28;20494;-59
2022/12/26 07:05:30;;;;;;;15.27;10.10;;;6.70;99.90;;;;;;5037425;28;20211;-59
2022/12/26 07:07:55;;;;;;;17.30;10.90;;;6.70;99.90;;;;;;5039054;28;20186;-58
2022/12/26 07:10:21;;;;;;;18.23;11.50;;;6.70;99.90;;;;;;5049837;28;20643;-58
2022/12/26 07:12:47;;;;;;;20.03;10.90;;;6.70;99.90;;;;;;5038427;28;20198;-59
2022/12/26 07:15:14;;;;;;;17.83;11.17;;;6.80;99.90;;;;;;5044345;28;20218;-59
2022/12/26 07:17:40;;;;;;;21.43;11.33;;;6.80;99.90;;;;;;5050172;28;20814;-59
2022/12/26 07:20:07;;;;;;;19.57;12.10;;;6.80;99.90;;;;;;5035700;28;20427;-59
2022/12/26 07:22:33;;;;;;;23.57;13.70;;;6.80;99.90;;;;;;5043849;28;20532;-59
2022/12/26 07:24:58;;;;;;;20.63;12.23;;;6.80;99.90;;;;;;5037553;28;21025;-58
2022/12/26 07:27:24;;;;;;;22.63;12.40;;;6.80;99.90;;;;;;5046821;28;20612;-58
2022/12/26 07:29:50;;;;;;;16.20;10.60;;;6.80;99.90;;;;;;5076801;22;20242;-63
2022/12/26 07:32:16;;;;;;;21.97;11.60;;;6.80;99.90;;;;;;5014339;28;20561;-63
2022/12/26 07:34:44;;;;;;;19.07;11.60;;;6.90;99.90;;;;;;5005946;28;20390;-64
2022/12/26 07:37:10;;;;;;;21.10;13.40;;;6.80;99.90;;;;;;5002756;28;20175;-61
2022/12/26 07:39:36;;;;;;;17.07;11.60;;;6.90;99.90;;;;;;5016599;28;20506;-61
2022/12/26 07:42:03;;;;;;;18.73;11.30;;;6.80;99.90;;;;;;5002383;28;20548;-62
2022/12/26 07:44:31;;;;;;;20.10;10.30;;;6.90;99.90;;;;;;5003607;28;20439;-61
2022/12/26 07:46:58;;;;;;;21.57;10.67;;;6.90;99.90;;;;;;5000914;28;20575;-62
2022/12/26 07:49:24;;;;;;;17.27;11.87;;;6.90;99.90;;;;;;5008580;28;20450;-63
2022/12/26 07:51:50;;;;;;;19.73;11.73;;;6.90;99.90;;;;;;5005666;28;20464;-66
2022/12/26 07:54:17;;;;;;;20.33;10.83;;;6.90;99.90;;;;;;4980050;28;20439;-63
2022/12/26 07:56:43;;;;;;;19.07;11.47;;;7.00;99.90;;;;;;4990392;28;20431;-62
2022/12/26 07:59:16;;;;;;;17.60;10.87;;;7.00;99.90;;;;;;4999820;28;20442;-62
2022/12/26 08:01:42;;;;;;;21.13;11.27;;;7.00;99.90;;;;;;5006532;28;20548;-60
2022/12/26 08:04:09;;;;;;;21.97;12.50;;;7.00;99.90;;;;;;5003314;28;21016;-61
2022/12/26 08:06:35;;;;;;;19.47;11.57;;;7.10;99.90;;;;;;5001172;28;20300;-61
2022/12/26 08:09:01;;;;;;;18.17;11.50;;;7.10;99.90;;;;;;5001668;28;20435;-56
2022/12/26 08:11:28;;;;;;;20.33;11.50;;;7.10;99.90;;;;;;4994385;28;20489;-62
2022/12/26 08:13:53;;;;;;;17.20;11.50;;;7.10;99.90;;;;;;5003141;28;20184;-61
2022/12/26 08:16:19;;;;;;;22.90;12.50;;;7.20;99.90;;;;;;5006360;28;20521;-63
2022/12/26 08:18:45;;;;;;;23.70;13.63;;;7.20;99.90;;;;;;5002049;28;20177;-62
2022/12/26 08:21:11;;;;;;;22.23;12.37;;;7.20;99.90;;;;;;4999384;28;20520;-62
2022/12/26 08:23:37;;;;;;;23.30;12.50;;;7.20;99.90;;;;;;5001711;28;20184;-61
2022/12/26 08:26:10;;;;;;;22.10;12.63;;;7.30;99.90;;;;;;5002669;28;20443;-62
2022/12/26 08:28:36;;;;;;;18.70;12.87;;;7.30;99.90;;;;;;4993395;28;20208;-65
2022/12/26 08:31:06;;;;;;;20.73;11.83;;;7.30;99.90;;;;;;4990301;28;20455;-61
2022/12/26 08:33:31;;;;;;;23.80;14.07;;;7.40;99.90;;;;;;5000042;28;20428;-60
2022/12/26 08:36:04;;;;;;;19.80;12.43;;;7.40;99.90;;;;;;4999606;28;20431;-61
2022/12/26 08:38:30;;;;;;;21.70;12.53;;;7.40;99.90;;;;;;5000080;28;20193;-61
2022/12/26 08:40:56;;;;;;;23.13;13.27;;;7.40;99.90;;;;;;4993695;28;20491;-59
2022/12/26 08:43:23;;;;;;;24.37;12.70;;;7.40;99.90;;;;;;4998718;28;20189;-61
2022/12/26 08:45:59;;;;;;;28.67;12.80;;;7.50;99.90;;;;;;4980838;28;20283;-60
2022/12/26 08:48:25;;;;;;;18.90;11.37;;;7.50;99.90;;;;;;4994342;28;20446;-60
2022/12/26 08:51:03;;;;;;;19.23;10.63;;;7.60;99.90;;;;;;4993682;28;20464;-62
2022/12/26 08:53:31;;;;;;;20.90;12.10;;;7.60;99.90;;;;;;5001299;28;20430;-61
2022/12/26 08:55:58;;;;;;;17.93;10.70;;;7.70;99.90;;;;;;4995365;28;20427;-62
2022/12/26 08:58:24;;;;;;;20.17;13.77;;;7.80;99.90;;;;;;5000094;28;20443;-62
2022/12/26 09:00:50;;;;;;;23.40;14.23;;;7.80;99.90;;;;;;5006428;28;21224;-64
2022/12/26 09:03:16;;;;;;;19.90;13.20;;;7.90;99.90;;;;;;4999667;28;20428;-62
2022/12/26 09:05:42;;;;;;;17.47;11.20;;;8.00;99.90;;;;;;4997571;28;20450;-62
2022/12/26 09:08:08;;;;;;;17.33;11.30;;;8.00;99.90;;;;;;4991799;28;20648;-61
2022/12/26 09:10:33;;;;;;;25.43;12.80;;;8.00;99.90;;;;;;4989338;28;20473;-61
2022/12/26 09:12:59;;;;;;;20.20;13.17;;;8.10;99.90;;;;;;4981797;28;20570;-61
2022/12/26 09:15:25;;;;;;;18.27;11.87;;;8.10;99.90;;;;;;4998308;28;20181;-60
2022/12/26 09:17:50;;;;;;;21.03;11.80;;;8.10;99.90;;;;;;4994185;28;20656;-60
2022/12/26 09:20:16;;;;;;;22.13;12.13;;;8.20;99.90;;;;;;4994514;28;20254;-61
2022/12/26 09:22:51;;;;;;;19.83;11.50;;;8.20;99.90;;;;;;4993630;28;20191;-61
2022/12/26 09:25:22;;;;;;;17.60;11.00;;;8.20;99.90;;;;;;4995889;28;20197;-62
2022/12/26 09:27:48;;;;;;;22.77;12.50;;;8.20;99.90;;;;;;4990531;28;20578;-59
2022/12/26 09:30:14;;;;;;;21.17;11.47;;;8.20;99.90;;;;;;4995242;28;20467;-61
2022/12/26 09:32:40;;;;;;;18.80;11.17;;;8.10;99.90;;;;;;4990317;28;20466;-62
2022/12/26 09:35:07;;;;;;;22.27;11.90;;;8.10;99.90;;;;;;4989041;28;20440;-61
2022/12/26 09:37:32;;;;;;;13.60;9.80;;;8.10;99.90;;;;;;4997922;28;21032;-61
2022/12/26 09:39:58;;;;;;;17.40;10.23;;;8.10;99.90;;;;;;4988246;28;20980;-61
2022/12/26 09:42:47;;;;;;;13.50;10.00;;;8.20;99.90;;;;;;4992142;28;20537;-61
2022/12/26 09:45:23;;;;;;;17.07;10.37;;;8.20;99.90;;;;;;4997760;28;20185;-61
2022/12/26 09:48:22;;;;;;;18.23;11.07;;;8.30;99.90;;;;;;5001908;28;20442;-61
2022/12/26 09:50:50;;;;;;;16.83;10.00;;;8.40;99.90;;;;;;5000971;28;20462;-63
2022/12/26 09:53:29;;;;;;;17.77;10.83;;;8.40;99.90;;;;;;5001376;28;20431;-64
2022/12/26 09:56:07;;;;;;;18.30;10.73;;;8.50;99.90;;;;;;5003267;28;21027;-61
2022/12/26 09:58:53;;;;;;;18.03;10.00;;;8.50;99.90;;;;;;4991518;28;20431;-58
2022/12/26 10:01:32;;;;;;;15.40;9.50;;;8.50;99.90;;;;;;4997357;28;21145;-60
2022/12/26 10:03:59;;;;;;;17.80;9.37;;;8.50;99.90;;;;;;4994642;28;20446;-58
2022/12/26 10:06:32;;;;;;;17.20;10.97;;;8.50;99.90;;;;;;4992090;28;20444;-61
2022/12/26 10:09:42;;;;;;;16.87;9.97;;;8.50;99.90;;;;;;4989968;28;20419;-64
2022/12/26 10:12:31;;;;;;;13.97;9.30;;;8.50;99.90;;;;;;4999142;28;20581;-61
2022/12/26 10:15:09;;;;;;;19.03;9.93;;;8.50;99.90;;;;;;4996179;28;22456;-62
2022/12/26 10:17:55;;;;;;;14.10;9.37;;;8.60;99.90;;;;;;4998214;28;20494;-62
2022/12/26 10:20:26;;;;;;;20.63;10.30;;;8.60;99.90;;;;;;4988718;28;20459;-61
2022/12/26 10:23:16;;;;;;;18.97;10.03;;;8.60;99.90;;;;;;4995917;28;20439;-61
2022/12/26 10:25:56;;;;;;;18.43;10.53;;;8.60;99.90;;;;;;5000056;28;20435;-64
2022/12/26 10:28:42;;;;;;;17.67;11.00;;;8.60;99.90;;;;;;5000457;28;20545;-62
2022/12/26 10:31:42;;;;;;;20.73;11.63;;;8.70;99.90;;;;;;4994951;28;20474;-61
2022/12/26 10:34:24;;;;;;;23.90;11.50;;;8.70;99.90;;;;;;4995257;28;20431;-59
2022/12/26 10:36:54;;;;;;;20.17;13.50;;;8.80;99.90;;;;;;4986635;28;20432;-63
2022/12/26 10:39:32;;;;;;;20.20;11.30;;;8.80;99.90;;;;;;4993488;28;20950;-61
2022/12/26 10:42:07;;;;;;;19.20;12.33;;;8.80;99.90;;;;;;4999335;28;20442;-61
2022/12/26 10:44:33;;;;;;;20.10;11.30;;;8.90;99.90;;;;;;4998078;28;20439;-60
2022/12/26 10:47:24;;;;;;;19.67;9.90;;;8.90;99.90;;;;;;4995682;28;20436;-60
2022/12/26 10:49:51;;;;;;;18.10;10.60;;;8.90;99.90;;;;;;4999988;28;20189;-61
2022/12/26 10:52:26;;;;;;;11.53;7.50;;;8.90;99.90;;;;;;5000888;28;21107;-62
2022/12/26 10:54:55;;;;;;;13.30;8.67;;;8.90;99.90;;;;;;4999220;28;20422;-62
2022/12/26 10:57:23;;;;;;;11.40;6.67;;;8.90;99.90;;;;;;4999551;28;20429;-61
2022/12/26 10:59:51;;;;;;;10.77;6.87;;;8.90;99.90;;;;;;4998237;28;20432;-60
2022/12/26 11:02:29;;;;;;;7.97;5.57;;;8.90;99.90;;;;;;5002288;28;20951;-60
2022/12/26 11:05:04;;;;;;;10.13;6.13;;;8.90;99.90;;;;;;4998222;28;20423;-59
2022/12/26 11:07:34;;;;;;;5.37;3.93;;;8.90;99.90;;;;;;4987565;28;20496;-61
2022/12/26 11:10:01;;;;;;;5.60;4.00;;;8.90;99.90;;;;;;4986663;28;20474;-61
2022/12/26 11:12:41;;;;;;;6.13;3.93;;;8.90;99.90;;;;;;4986511;28;20466;-58
2022/12/26 11:15:32;;;;;;;4.80;3.30;;;8.90;99.90;;;;;;4980619;28;20566;-64
2022/12/26 11:18:19;;;;;;;5.07;3.30;;;8.90;99.90;;;;;;4990739;28;20438;-61
2022/12/26 11:20:47;;;;;;;4.10;2.70;;;8.90;99.90;;;;;;5000644;28;20825;-61
2022/12/26 11:23:21;;;;;;;5.03;2.83;;;8.90;99.90;;;;;;5003228;28;20434;-63
2022/12/26 11:25:50;;;;;;;3.00;2.70;;;9.00;99.90;;;;;;5005246;28;20453;-60
2022/12/26 11:28:35;;;;;;;2.77;2.20;;;9.00;99.90;;;;;;5002403;28;20464;-66
2022/12/26 11:31:04;;;;;;;5.20;2.63;;;9.00;99.90;;;;;;5003247;28;21061;-63
2022/12/26 11:33:41;;;;;;;2.87;2.57;;;9.00;99.90;;;;;;5003676;28;20547;-60
2022/12/26 11:36:24;;;;;;;3.00;2.27;;;9.10;99.90;;;;;;5003908;28;20427;-59
2022/12/26 11:38:57;;;;;;;2.43;1.90;;;9.10;99.90;;;;;;4998653;28;20432;-64
2022/12/26 11:41:32;;;;;;;2.80;1.83;;;9.10;99.90;;;;;;5002733;28;20523;-63
2022/12/26 11:44:03;;;;;;;2.90;2.23;;;9.10;99.90;;;;;;4982611;28;20486;-58
2022/12/26 11:46:44;;;;;;;5.90;2.13;;;9.10;99.90;;;;;;5002997;28;20521;-60
2022/12/26 11:49:33;;;;;;;2.50;1.70;;;9.10;99.90;;;;;;5004783;28;20567;-61
2022/12/26 11:52:02;;;;;;;3.33;2.40;;;9.10;99.90;;;;;;4989844;28;20537;-60
2022/12/26 11:54:29;;;;;;;2.47;1.80;;;9.00;99.90;;;;;;5002378;28;20520;-61
2022/12/26 11:57:16;;;;;;;2.30;2.10;;;9.00;99.90;;;;;;4982271;28;20432;-60
2022/12/26 11:59:43;;;;;;;1.40;1.30;;;9.00;99.90;;;;;;4984968;28;20510;-60
2022/12/26 12:02:30;;;;;;;2.70;2.00;;;9.00;99.90;;;;;;5002359;28;20439;-61
2022/12/26 12:05:12;;;;;;;2.33;1.80;;;9.00;99.90;;;;;;5002554;28;20467;-66
2022/12/26 12:07:59;;;;;;;3.17;2.07;;;9.00;99.90;;;;;;5009191;28;20431;-58
2022/12/26 12:10:37;;;;;;;2.40;2.00;;;8.90;99.90;;;;;;5000876;28;20463;-61
2022/12/26 12:13:12;;;;;;;2.57;1.70;;;8.90;99.90;;;;;;5006989;28;20436;-63
2022/12/26 12:15:55;;;;;;;2.30;2.00;;;8.90;99.90;;;;;;5004345;28;20438;-62
2022/12/26 12:18:49;;;;;;;8.43;3.43;;;8.90;99.90;;;;;;5001759;28;20440;-62
2022/12/26 12:21:53;;;;;;;4.93;2.70;;;8.90;99.90;;;;;;4998333;28;20451;-61
2022/12/26 12:24:43;;;;;;;2.90;2.10;;;8.90;99.90;;;;;;4987050;28;20958;-61
2022/12/26 12:27:28;;;;;;;2.70;2.50;;;8.90;99.90;;;;;;5005352;28;20431;-61
2022/12/26 12:30:02;;;;;;;2.63;2.43;;;8.90;99.90;;;;;;5002520;28;20428;-61
2022/12/26 12:32:52;;;;;;;4.53;2.60;;;8.90;99.90;;;;;;5002853;28;20488;-61
2022/12/26 12:35:38;;;;;;;2.40;2.20;;;8.90;99.90;;;;;;5000771;28;20516;-61
2022/12/26 12:38:23;;;;;;;2.53;2.20;;;8.80;99.90;;;;;;5003722;28;20981;-61
2022/12/26 12:40:51;;;;;;;2.40;2.20;;;8.80;99.90;;;;;;4999916;28;20459;-60
2022/12/26 12:43:20;;;;;;;2.73;2.30;;;8.80;99.90;;;;;;5001178;28;21148;-61
2022/12/26 12:46:15;;;;;;;4.60;2.03;;;8.70;99.90;;;;;;5007445;28;20442;-62
2022/12/26 12:48:55;;;;;;;1.80;1.70;;;8.70;99.90;;;;;;5009550;28;20419;-61
2022/12/26 12:51:24;;;;;;;2.03;1.90;;;8.70;99.90;;;;;;5010112;28;20544;-60
2022/12/26 12:54:02;;;;;;;1.73;1.63;;;8.70;99.90;;;;;;5008195;28;20430;-61
2022/12/26 12:56:55;;;;;;;2.10;1.50;;;8.70;99.90;;;;;;5001961;28;20513;-61
2022/12/26 12:59:42;;;;;;;2.03;1.70;;;8.60;99.90;;;;;;5009975;28;20530;-60
2022/12/26 13:02:24;;;;;;;1.33;1.23;;;8.60;99.90;;;;;;5006601;28;20579;-61
2022/12/26 13:04:58;;;;;;;6.37;1.30;;;8.60;99.90;;;;;;5009676;28;20435;-60
2022/12/26 13:07:34;;;;;;;2.47;1.50;;;8.60;99.90;;;;;;5013493;28;20806;-63
2022/12/26 13:10:05;;;;;;;1.90;1.70;;;8.60;99.90;;;;;;5005566;28;20486;-61
2022/12/26 13:12:36;;;;;;;1.30;1.20;;;8.60;99.90;;;;;;5007240;28;20451;-61
2022/12/26 13:15:12;;;;;;;1.10;1.10;;;8.60;99.90;;;;;;5023077;28;20602;-65
2022/12/26 13:17:56;;;;;;;1.10;1.00;;;8.50;99.90;;;;;;5005634;28;20431;-63
2022/12/26 13:20:46;;;;;;;1.67;1.13;;;8.50;99.90;;;;;;5000851;28;20534;-62
2022/12/26 13:26:19;;;;;;;3.23;1.53;;;8.40;99.90;;;;;;5002593;28;20853;-61
2022/12/26 13:28:58;;;;;;;1.30;1.20;;;8.40;99.90;;;;;;5000032;28;20424;-61
2022/12/26 13:31:24;;;;;;;1.77;1.33;;;8.40;99.90;;;;;;5003364;28;20475;-61
2022/12/26 13:33:50;;;;;;;1.50;1.40;;;8.30;99.90;;;;;;5008457;28;20454;-61
2022/12/26 13:36:39;;;;;;;1.57;1.47;;;8.30;99.90;;;;;;5001466;28;20435;-62
2022/12/26 13:39:11;;;;;;;5.10;1.60;;;8.30;99.90;;;;;;5005418;28;20189;-61
2022/12/26 13:44:31;;;;;;;1.47;1.37;;;8.30;99.90;;;;;;5009492;28;20447;-59
2022/12/26 13:46:58;;;;;;;2.60;1.80;;;8.20;99.90;;;;;;5006156;28;20424;-59
2022/12/26 13:49:37;;;;;;;1.83;1.67;;;8.20;99.90;;;;;;5009183;28;20427;-60
2022/12/26 13:52:18;;;;;;;1.73;1.60;;;8.20;99.90;;;;;;5007931;28;20656;-59
2022/12/26 13:54:46;;;;;;;2.30;2.10;;;8.10;99.90;;;;;;5012484;28;20441;-59
2022/12/26 13:57:12;;;;;;;3.33;2.50;;;8.10;99.90;;;;;;5005917;28;20447;-60
2022/12/26 14:00:05;;;;;;;4.53;2.30;;;8.10;99.90;;;;;;5001684;28;20488;-59
2022/12/26 14:03:08;;;;;;;3.23;2.50;;;8.10;99.90;;;;;;5009374;28;20200;-59
2022/12/26 14:05:56;;;;;;;3.17;2.40;;;8.10;99.90;;;;;;5011704;28;20434;-59
2022/12/26 14:08:39;;;;;;;2.93;2.40;;;8.10;99.90;;;;;;5008663;28;20438;-59
2022/12/26 14:11:26;;;;;;;2.13;1.90;;;8.10;99.90;;;;;;5001908;28;20454;-60
2022/12/26 14:14:00;;;;;;;2.47;2.23;;;8.10;99.90;;;;;;5007554;28;20434;-59
2022/12/26 14:16:53;;;;;;;3.77;2.37;;;8.10;99.90;;;;;;4999223;28;20436;-59
2022/12/26 14:19:35;;;;;;;6.27;2.97;;;8.10;99.90;;;;;;4996329;28;20864;-60
2022/12/26 14:22:28;;;;;;;7.93;2.90;;;8.10;99.90;;;;;;5012501;28;20466;-59
2022/12/26 14:25:19;;;;;;;5.20;3.30;;;8.00;99.90;;;;;;5004501;28;20513;-60
2022/12/26 14:28:15;;;;;;;7.43;3.80;;;8.10;99.90;;;;;;4991078;28;20955;-59
2022/12/26 14:30:53;;;;;;;7.40;4.00;;;8.00;99.90;;;;;;5004608;28;20424;-59
2022/12/26 14:33:58;;;;;;;6.87;4.83;;;8.00;99.90;;;;;;5008181;28;20454;-59
2022/12/26 14:36:47;;;;;;;5.47;3.97;;;8.00;99.90;;;;;;4967711;28;21145;-59
2022/12/26 14:39:39;;;;;;;2.77;2.50;;;8.00;99.90;;;;;;4983050;28;20445;-59
2022/12/26 14:45:31;;;;;;;5.70;3.87;;;7.90;99.90;;;;;;4923955;29;20439;-59
2022/12/26 14:47:57;;;;;;;6.50;5.47;;;7.90;99.90;;;;;;4994187;28;20450;-59
2022/12/26 14:50:31;;;;;;;5.97;3.87;;;7.90;99.90;;;;;;5004450;28;20428;-60
2022/12/26 14:53:20;;;;;;;3.20;2.90;;;7.90;99.90;;;;;;5006341;28;20273;-59
2022/12/26 14:56:14;;;;;;;5.07;3.30;;;7.90;99.90;;;;;;5005060;28;20443;-59
2022/12/26 14:59:21;;;;;;;5.20;3.40;;;7.90;99.90;;;;;;5015079;28;20427;-59
2022/12/26 15:01:58;;;;;;;6.50;3.93;;;7.90;99.90;;;;;;5015018;28;20503;-59
2022/12/26 15:04:30;;;;;;;5.00;3.77;;;7.80;99.90;;;;;;4994020;28;20474;-59
2022/12/26 15:07:01;;;;;;;5.33;4.40;;;7.80;99.90;;;;;;5013513;28;20947;-59
2022/12/26 15:09:52;;;;;;;6.13;4.13;;;7.80;99.90;;;;;;5005675;28;20435;-59
2022/12/26 15:12:29;;;;;;;13.50;3.70;;;7.80;99.90;;;;;;5006986;28;20498;-60
2022/12/26 15:15:36;;;;;;;5.20;4.20;;;7.80;99.90;;;;;;5017093;28;20436;-59
2022/12/26 15:18:05;;;;;;;9.43;5.40;;;7.80;99.90;;;;;;5011670;28;20534;-59
2022/12/26 15:20:36;;;;;;;7.40;4.90;;;7.80;99.90;;;;;;5008203;28;20447;-60
2022/12/26 15:23:25;;;;;;;9.50;6.40;;;7.80;99.90;;;;;;5013371;28;20874;-58
2022/12/26 15:25:54;;;;;;;14.60;8.73;;;7.80;99.90;;;;;;5004765;28;20423;-60
2022/12/26 15:28:48;;;;;;;15.40;8.00;;;7.70;99.90;;;;;;5015848;28;20444;-60